Time;durP1;ratioP1;P1;durP2;ratioP2;P2;SDS_P1;SDS_P2;PMS_P1;PMS_P2;Temp;Humidity;BMP_temperature;BMP_pressure;BME280_temperature;BME280_humidity;BME280_pressure;Samples;Min_cycle;Max_cycle;Signal;HPM_P1;HPM_P2
2021/06/12 00:00:21;;;;;;;5.97;4.53;;;20.90;61.90;;;;;;5028786;28;20021;-79
2021/06/12 00:02:46;;;;;;;4.05;3.45;;;20.90;62.00;;;;;;5028752;28;20039;-80
2021/06/12 00:05:12;;;;;;;4.55;3.50;;;21.00;61.50;;;;;;5036458;28;20112;-79
2021/06/12 00:07:38;;;;;;;4.72;3.22;;;21.00;62.60;;;;;;5012850;28;20037;-79
2021/06/12 00:10:09;;;;;;;3.25;2.95;;;21.20;62.70;;;;;;5026931;28;20074;-79
2021/06/12 00:12:34;;;;;;;5.20;3.45;;;21.10;62.20;;;;;;5008113;28;20038;-79
2021/06/12 00:15:00;;;;;;;5.97;3.63;;;20.90;61.80;;;;;;5033783;28;20501;-79
2021/06/12 00:17:25;;;;;;;5.15;3.50;;;20.90;62.20;;;;;;5015532;28;20147;-80
2021/06/12 00:19:51;;;;;;;5.50;3.58;;;20.90;62.20;;;;;;5029628;28;20041;-79
2021/06/12 00:22:17;;;;;;;5.05;3.10;;;20.90;62.30;;;;;;5037280;28;20036;-79
2021/06/12 00:24:42;;;;;;;4.85;3.28;;;21.10;62.70;;;;;;5035727;28;20433;-80
2021/06/12 00:27:08;;;;;;;4.85;3.55;;;21.20;63.20;;;;;;5038239;28;20036;-79
2021/06/12 00:29:34;;;;;;;4.47;3.78;;;21.20;63.50;;;;;;5036108;28;20142;-79
2021/06/12 00:31:59;;;;;;;5.93;2.90;;;21.10;62.50;;;;;;5036484;28;20032;-79
2021/06/12 00:34:25;;;;;;;3.83;3.15;;;21.00;63.60;;;;;;5022238;28;20037;-79
2021/06/12 00:36:51;;;;;;;7.47;3.95;;;21.00;63.80;;;;;;5028554;28;20037;-79
2021/06/12 00:39:17;;;;;;;10.30;4.50;;;21.00;63.80;;;;;;5028163;28;20492;-80
2021/06/12 00:41:43;;;;;;;6.25;4.20;;;20.90;63.50;;;;;;5018496;28;20041;-79
2021/06/12 00:44:08;;;;;;;7.60;4.43;;;20.80;63.90;;;;;;5018702;28;20029;-79
2021/06/12 00:46:34;;;;;;;5.43;4.65;;;20.80;64.30;;;;;;5011125;28;20131;-80
2021/06/12 00:49:00;;;;;;;5.28;4.43;;;20.80;64.80;;;;;;5019650;28;20542;-79
2021/06/12 00:51:25;;;;;;;10.23;5.80;;;20.80;65.10;;;;;;4999597;28;20030;-79
2021/06/12 00:53:51;;;;;;;11.07;5.97;;;20.70;64.30;;;;;;5005639;28;20033;-80
2021/06/12 00:56:18;;;;;;;4.35;3.92;;;20.70;65.00;;;;;;5004957;28;20037;-80
2021/06/12 00:58:44;;;;;;;4.85;4.32;;;20.70;65.50;;;;;;5028068;28;20044;-79
2021/06/12 01:01:20;;;;;;;4.72;3.97;;;20.80;65.90;;;;;;5033232;28;20416;-80
2021/06/12 01:03:45;;;;;;;7.22;4.82;;;20.60;65.30;;;;;;5032789;28;20049;-79
2021/06/12 01:06:15;;;;;;;5.72;4.80;;;20.70;65.60;;;;;;5038190;28;20083;-79
2021/06/12 01:08:42;;;;;;;7.78;4.90;;;20.70;66.00;;;;;;5020450;28;20041;-79
2021/06/12 01:11:07;;;;;;;9.02;5.53;;;20.70;66.60;;;;;;5007911;28;20029;-79
2021/06/12 01:14:05;;;;;;;5.50;4.47;;;20.60;66.10;;;;;;5005598;28;20038;-79
2021/06/12 01:16:44;;;;;;;5.05;3.50;;;20.50;66.60;;;;;;5015011;28;20026;-79
2021/06/12 01:19:33;;;;;;;8.65;5.13;;;20.60;66.30;;;;;;5003801;28;20033;-79
2021/06/12 01:22:01;;;;;;;4.75;3.42;;;20.30;66.00;;;;;;5032733;28;20037;-79
2021/06/12 01:24:38;;;;;;;5.95;4.85;;;20.40;65.60;;;;;;5033329;28;20528;-80
2021/06/12 01:27:24;;;;;;;6.30;4.15;;;20.50;66.80;;;;;;5025503;28;20062;-79
2021/06/12 01:30:16;;;;;;;6.30;4.78;;;20.50;66.20;;;;;;5027574;28;20042;-79
2021/06/12 01:32:47;;;;;;;5.78;4.03;;;20.40;65.50;;;;;;5039734;28;20046;-79
2021/06/12 01:35:34;;;;;;;8.27;5.65;;;20.40;66.70;;;;;;5021442;28;20516;-79
2021/06/12 01:38:00;;;;;;;7.47;5.00;;;20.40;66.50;;;;;;5009258;28;20029;-79
2021/06/12 01:40:31;;;;;;;7.38;5.05;;;20.30;66.60;;;;;;5039003;28;20489;-80
2021/06/12 01:42:57;;;;;;;6.28;4.65;;;20.20;67.20;;;;;;5031263;28;20331;-79
2021/06/12 01:45:23;;;;;;;7.50;4.85;;;20.30;66.90;;;;;;5034897;28;20130;-80
2021/06/12 01:47:48;;;;;;;8.20;4.40;;;20.30;67.30;;;;;;5036927;28;20516;-79
2021/06/12 01:50:17;;;;;;;5.18;4.05;;;20.10;68.20;;;;;;5027255;28;20036;-79
2021/06/12 01:52:43;;;;;;;7.18;4.82;;;20.20;67.20;;;;;;5020746;28;20041;-79
2021/06/12 01:55:09;;;;;;;5.22;3.63;;;20.20;66.80;;;;;;5021205;28;20025;-79
2021/06/12 01:57:35;;;;;;;4.88;3.97;;;20.20;68.30;;;;;;5018779;28;20036;-79
2021/06/12 02:00:01;;;;;;;7.05;4.60;;;20.20;67.70;;;;;;5028872;28;20102;-79
2021/06/12 02:02:26;;;;;;;5.97;5.05;;;20.00;68.30;;;;;;5034998;28;20045;-79
2021/06/12 02:04:52;;;;;;;4.45;2.92;;;20.10;68.30;;;;;;5026247;28;20033;-79
2021/06/12 02:07:18;;;;;;;9.55;4.20;;;20.30;67.10;;;;;;5019074;28;20087;-79
2021/06/12 02:09:45;;;;;;;10.95;4.78;;;20.20;68.70;;;;;;5009985;28;20060;-80
2021/06/12 02:12:11;;;;;;;9.07;5.05;;;20.20;69.00;;;;;;5023381;28;20698;-79
2021/06/12 02:14:37;;;;;;;10.73;4.70;;;20.10;68.20;;;;;;4988280;28;20036;-79
2021/06/12 02:17:02;;;;;;;5.57;4.57;;;20.00;68.70;;;;;;5021112;28;20040;-79
2021/06/12 02:19:28;;;;;;;6.65;3.20;;;20.10;68.10;;;;;;5020527;28;20037;-79
2021/06/12 02:21:54;;;;;;;6.18;4.60;;;20.20;68.30;;;;;;5036014;28;20036;-79
2021/06/12 02:24:20;;;;;;;4.90;4.00;;;20.20;68.50;;;;;;5017604;28;20501;-80
2021/06/12 02:26:48;;;;;;;6.75;4.43;;;20.10;68.50;;;;;;5009799;28;20036;-79
2021/06/12 02:29:15;;;;;;;6.95;3.50;;;20.20;67.90;;;;;;5033408;28;20232;-78
2021/06/12 02:31:44;;;;;;;3.97;3.38;;;20.30;68.00;;;;;;5004674;28;20038;-79
2021/06/12 02:34:10;;;;;;;10.38;5.53;;;20.40;68.00;;;;;;5009126;28;20045;-79
2021/06/12 02:36:36;;;;;;;6.28;5.13;;;20.40;68.90;;;;;;5016412;28;20038;-84
2021/06/12 02:39:03;;;;;;;7.68;5.03;;;20.20;67.30;;;;;;5003639;28;20034;-84
2021/06/12 02:41:29;;;;;;;6.15;3.83;;;20.30;69.20;;;;;;5035827;28;20049;-83
2021/06/12 02:43:54;;;;;;;7.68;4.57;;;20.20;68.70;;;;;;5035678;28;20033;-84
2021/06/12 02:46:22;;;;;;;4.43;3.83;;;20.20;68.30;;;;;;5023020;28;20397;-83
2021/06/12 02:48:50;;;;;;;10.93;5.05;;;20.40;69.20;;;;;;5020250;28;20085;-84
2021/06/12 02:51:15;;;;;;;5.50;4.03;;;20.40;69.70;;;;;;5027521;28;20377;-84
2021/06/12 02:53:41;;;;;;;5.72;4.03;;;20.40;69.20;;;;;;5015238;28;20022;-83
2021/06/12 02:56:07;;;;;;;6.28;4.10;;;20.40;69.20;;;;;;5008175;28;20030;-84
2021/06/12 02:58:32;;;;;;;4.90;3.83;;;20.50;68.70;;;;;;5013593;28;20040;-84
2021/06/12 03:00:58;;;;;;;6.30;4.10;;;20.50;69.20;;;;;;5017857;28;20778;-82
2021/06/12 03:03:23;;;;;;;9.02;5.93;;;20.30;68.80;;;;;;4996344;28;20025;-84
2021/06/12 03:05:54;;;;;;;4.90;3.20;;;20.00;68.20;;;;;;5020697;28;20108;-83
2021/06/12 03:08:20;;;;;;;7.97;5.43;;;20.10;69.50;;;;;;5015611;28;20028;-84
2021/06/12 03:10:46;;;;;;;6.72;4.28;;;20.20;69.10;;;;;;5025240;28;20507;-84
2021/06/12 03:13:13;;;;;;;6.20;4.28;;;20.30;69.80;;;;;;5030435;28;20028;-83
2021/06/12 03:15:38;;;;;;;8.43;5.00;;;20.30;69.80;;;;;;4999565;28;20034;-83
2021/06/12 03:18:04;;;;;;;6.00;3.35;;;20.20;70.00;;;;;;4997462;28;20021;-83
2021/06/12 03:20:30;;;;;;;8.15;3.85;;;20.30;69.10;;;;;;5018216;28;20034;-84
2021/06/12 03:23:01;;;;;;;5.13;3.65;;;20.30;69.80;;;;;;5021910;28;20033;-83
2021/06/12 03:25:26;;;;;;;5.95;3.80;;;20.30;70.20;;;;;;5027953;28;20124;-84
2021/06/12 03:27:52;;;;;;;3.80;2.88;;;20.20;70.10;;;;;;5002439;28;20116;-83
2021/06/12 03:30:18;;;;;;;3.63;2.97;;;20.20;69.30;;;;;;5029705;28;20057;-84
2021/06/12 03:32:43;;;;;;;4.85;3.35;;;20.00;69.60;;;;;;5015450;28;20037;-84
2021/06/12 03:35:09;;;;;;;6.40;3.17;;;20.20;70.80;;;;;;5026049;28;20033;-84
2021/06/12 03:37:35;;;;;;;7.05;3.25;;;20.20;70.40;;;;;;5009021;28;20037;-83
2021/06/12 03:40:01;;;;;;;11.15;5.07;;;20.20;70.70;;;;;;5035401;28;20060;-83
2021/06/12 03:42:26;;;;;;;7.80;3.45;;;20.10;70.10;;;;;;5015484;28;20045;-84
2021/06/12 03:44:52;;;;;;;7.75;4.35;;;20.00;71.10;;;;;;5024796;28;20036;-84
2021/06/12 03:47:18;;;;;;;5.45;3.25;;;20.00;71.00;;;;;;5022170;28;20064;-83
2021/06/12 03:49:43;;;;;;;5.60;2.92;;;20.10;71.60;;;;;;5035522;28;20057;-83
2021/06/12 03:52:09;;;;;;;3.92;3.45;;;20.10;71.00;;;;;;5023439;28;20201;-84
2021/06/12 03:54:38;;;;;;;6.30;4.03;;;20.10;70.50;;;;;;5022245;28;20041;-83
2021/06/12 03:57:04;;;;;;;5.95;4.13;;;20.00;71.80;;;;;;5022377;28;20037;-83
2021/06/12 03:59:29;;;;;;;7.25;3.13;;;20.00;70.70;;;;;;5017278;28;20045;-83
2021/06/12 04:01:55;;;;;;;7.18;3.75;;;19.90;71.40;;;;;;5011935;28;20045;-83
2021/06/12 04:04:23;;;;;;;7.30;3.22;;;19.80;70.80;;;;;;5019614;28;20047;-83
2021/06/12 04:06:50;;;;;;;4.93;3.25;;;19.90;70.90;;;;;;5002354;28;20033;-82
2021/06/12 04:09:15;;;;;;;6.10;3.78;;;19.90;70.70;;;;;;5025061;28;20080;-83
2021/06/12 04:11:41;;;;;;;5.45;3.03;;;19.90;71.70;;;;;;5002107;28;20456;-83
2021/06/12 04:14:06;;;;;;;7.03;4.88;;;19.90;71.40;;;;;;5001969;28;20331;-83
2021/06/12 04:16:32;;;;;;;7.30;3.50;;;19.80;71.20;;;;;;5022886;28;20030;-83
2021/06/12 04:18:59;;;;;;;4.18;3.28;;;19.90;71.70;;;;;;5038973;28;20033;-84
2021/06/12 04:21:25;;;;;;;4.63;3.33;;;20.00;72.30;;;;;;5027516;28;20029;-83
2021/06/12 04:23:50;;;;;;;10.40;5.47;;;19.90;72.30;;;;;;5019834;28;20043;-83
2021/06/12 04:26:16;;;;;;;8.10;4.10;;;20.00;72.20;;;;;;5022650;28;20043;-83
2021/06/12 04:28:41;;;;;;;8.13;4.05;;;19.90;71.80;;;;;;5003791;28;20080;-83
2021/06/12 04:31:07;;;;;;;5.55;3.88;;;20.00;72.90;;;;;;5025660;28;20029;-83
2021/06/12 04:33:32;;;;;;;5.15;2.28;;;20.00;72.80;;;;;;5002569;28;20501;-82
2021/06/12 04:35:58;;;;;;;3.45;2.80;;;20.00;73.40;;;;;;5016515;28;20487;-83
2021/06/12 04:38:23;;;;;;;5.82;3.50;;;20.00;73.70;;;;;;5022735;28;20026;-83
2021/06/12 04:40:49;;;;;;;5.05;3.42;;;20.00;73.20;;;;;;5021790;28;20041;-83
2021/06/12 04:43:14;;;;;;;8.45;3.85;;;20.00;73.30;;;;;;5028526;28;20041;-83
2021/06/12 04:45:40;;;;;;;6.45;3.67;;;20.00;72.70;;;;;;5004305;28;20385;-83
2021/06/12 04:48:07;;;;;;;5.43;3.30;;;20.10;72.50;;;;;;5001292;28;20088;-83
2021/06/12 04:50:35;;;;;;;6.05;2.45;;;20.00;73.00;;;;;;5003299;28;20098;-83
2021/06/12 04:53:01;;;;;;;5.18;3.65;;;20.10;73.60;;;;;;5008555;28;20033;-83
2021/06/12 04:55:26;;;;;;;10.77;4.28;;;20.10;73.40;;;;;;5022567;28;20045;-83
2021/06/12 04:57:52;;;;;;;10.05;3.30;;;20.10;74.80;;;;;;5023325;28;20078;-83
2021/06/12 05:00:18;;;;;;;8.90;3.47;;;20.20;75.10;;;;;;5023157;28;20140;-83
2021/06/12 05:02:43;;;;;;;4.85;3.55;;;20.10;75.00;;;;;;5020286;28;20042;-84
2021/06/12 05:05:10;;;;;;;7.25;4.68;;;20.20;74.30;;;;;;5018798;28;20041;-83
2021/06/12 05:07:36;;;;;;;10.50;5.78;;;20.20;74.70;;;;;;5023694;28;20492;-83
2021/06/12 05:10:02;;;;;;;10.30;4.63;;;20.20;74.60;;;;;;5015691;28;21161;-84
2021/06/12 05:12:28;;;;;;;5.88;3.78;;;20.30;74.00;;;;;;5038448;28;20497;-84
2021/06/12 05:14:56;;;;;;;7.63;5.18;;;20.30;74.10;;;;;;5037742;28;20171;-84
2021/06/12 05:17:22;;;;;;;8.02;4.00;;;20.40;74.20;;;;;;5021496;28;21029;-84
2021/06/12 05:19:47;;;;;;;8.45;4.85;;;20.50;73.90;;;;;;5026210;28;20116;-84
2021/06/12 05:22:13;;;;;;;7.43;3.95;;;20.50;73.00;;;;;;5020033;28;20135;-83
2021/06/12 05:24:39;;;;;;;10.13;5.78;;;20.60;73.50;;;;;;5032512;28;20071;-84
2021/06/12 05:27:06;;;;;;;12.48;5.57;;;20.70;73.30;;;;;;5021606;28;20167;-83
2021/06/12 05:29:32;;;;;;;5.70;4.53;;;20.70;73.80;;;;;;5000138;28;20121;-84
2021/06/12 05:31:57;;;;;;;8.35;5.45;;;20.90;72.90;;;;;;5020577;28;20125;-83
2021/06/12 05:34:23;;;;;;;8.82;4.32;;;21.10;72.70;;;;;;5018530;28;20361;-84
2021/06/12 05:36:49;;;;;;;10.45;5.78;;;21.10;72.60;;;;;;5028308;28;20037;-84
2021/06/12 05:39:15;;;;;;;7.80;4.57;;;21.30;73.30;;;;;;5027015;28;20040;-84
2021/06/12 05:41:40;;;;;;;10.90;5.18;;;21.50;71.60;;;;;;5019718;28;20084;-83
2021/06/12 05:44:06;;;;;;;7.53;4.78;;;21.60;72.00;;;;;;5020247;28;20064;-83
2021/06/12 05:46:32;;;;;;;7.68;4.85;;;21.60;71.80;;;;;;5001828;28;20129;-84
2021/06/12 05:48:59;;;;;;;5.18;3.08;;;21.70;71.70;;;;;;5004721;28;20068;-84
2021/06/12 05:51:27;;;;;;;9.02;5.75;;;21.50;72.40;;;;;;5004304;28;20513;-83
2021/06/12 05:53:53;;;;;;;9.43;6.93;;;21.60;72.40;;;;;;5017274;28;20064;-83
2021/06/12 05:56:18;;;;;;;11.52;5.70;;;21.70;72.60;;;;;;5021793;28;20142;-83
2021/06/12 05:58:44;;;;;;;9.63;5.22;;;21.70;72.20;;;;;;5011196;28;20129;-83
2021/06/12 06:01:11;;;;;;;9.25;6.18;;;21.80;72.30;;;;;;5041195;28;20029;-84
2021/06/12 06:03:37;;;;;;;10.95;5.80;;;22.10;73.10;;;;;;4996982;28;20041;-83
2021/06/12 06:06:03;;;;;;;11.02;6.07;;;22.20;71.90;;;;;;5015920;28;20029;-84
2021/06/12 06:08:28;;;;;;;9.25;6.13;;;22.10;72.30;;;;;;5000304;28;20033;-84
2021/06/12 06:10:54;;;;;;;9.95;6.32;;;22.20;72.20;;;;;;5019592;28;20032;-83
2021/06/12 06:13:19;;;;;;;11.07;8.35;;;22.10;72.80;;;;;;5025796;28;20562;-84
2021/06/12 06:15:45;;;;;;;7.03;4.63;;;22.50;74.10;;;;;;5022903;28;20036;-84
2021/06/12 06:18:11;;;;;;;14.30;7.35;;;22.80;70.60;;;;;;5026676;28;20037;-84
2021/06/12 06:20:36;;;;;;;10.27;5.78;;;23.00;70.30;;;;;;5033615;28;20028;-83
2021/06/12 06:23:02;;;;;;;9.60;5.95;;;23.10;70.10;;;;;;5015514;28;20044;-83
2021/06/12 06:25:27;;;;;;;9.15;5.75;;;23.10;70.50;;;;;;5001997;28;20060;-84
2021/06/12 06:27:53;;;;;;;11.73;6.03;;;23.40;71.00;;;;;;5020757;28;20389;-84
2021/06/12 06:30:18;;;;;;;7.13;5.13;;;23.50;69.00;;;;;;5032724;28;20511;-84
2021/06/12 06:32:44;;;;;;;10.95;7.82;;;23.80;69.00;;;;;;5006096;28;20092;-83
2021/06/12 06:35:12;;;;;;;10.18;6.88;;;24.00;70.90;;;;;;5020260;28;20041;-84
2021/06/12 06:37:38;;;;;;;8.55;5.68;;;24.00;68.60;;;;;;5005043;28;20034;-83
2021/06/12 06:40:04;;;;;;;9.50;6.88;;;23.90;68.30;;;;;;5019234;28;20087;-84
2021/06/12 06:42:30;;;;;;;10.30;6.32;;;24.20;69.30;;;;;;5013146;28;20110;-83
2021/06/12 06:44:55;;;;;;;12.63;9.10;;;24.30;67.40;;;;;;5014256;28;20038;-83
2021/06/12 06:47:21;;;;;;;11.48;7.95;;;24.20;69.30;;;;;;5034987;28;20036;-84
2021/06/12 06:49:46;;;;;;;8.65;7.70;;;24.50;68.30;;;;;;5018435;28;20026;-84
2021/06/12 06:52:12;;;;;;;10.30;7.72;;;24.50;68.00;;;;;;5020765;28;20328;-84
2021/06/12 06:54:37;;;;;;;10.07;7.80;;;24.00;68.00;;;;;;5021754;28;20036;-84
2021/06/12 06:57:03;;;;;;;12.13;10.25;;;24.00;68.50;;;;;;5027296;28;20071;-84
2021/06/12 06:59:30;;;;;;;18.92;13.82;;;24.10;69.40;;;;;;5024722;28;20032;-84
2021/06/12 07:01:55;;;;;;;16.10;11.73;;;24.50;68.20;;;;;;5025368;28;20652;-83
2021/06/12 07:04:21;;;;;;;14.35;10.93;;;24.60;68.00;;;;;;5030233;28;20025;-83
2021/06/12 07:06:46;;;;;;;15.77;11.65;;;24.70;67.20;;;;;;5004514;28;20397;-82
2021/06/12 07:09:12;;;;;;;18.63;13.45;;;24.90;67.80;;;;;;5021196;28;20040;-84
2021/06/12 07:11:37;;;;;;;17.23;12.55;;;24.80;67.50;;;;;;5004206;28;20053;-83
2021/06/12 07:14:03;;;;;;;10.55;8.77;;;25.10;67.90;;;;;;5006422;28;20052;-84
2021/06/12 07:16:28;;;;;;;10.38;9.02;;;25.30;66.10;;;;;;5015718;28;20121;-84
2021/06/12 07:18:54;;;;;;;12.18;10.38;;;25.10;65.50;;;;;;5034995;28;20456;-83
2021/06/12 07:21:20;;;;;;;15.50;11.40;;;24.80;65.50;;;;;;5021285;28;20045;-84
2021/06/12 07:23:45;;;;;;;17.25;14.05;;;24.70;65.90;;;;;;5022130;28;20112;-84
2021/06/12 07:26:11;;;;;;;23.35;14.75;;;24.60;65.90;;;;;;5010307;28;20021;-84
2021/06/12 07:28:36;;;;;;;10.63;9.52;;;24.50;66.40;;;;;;5004147;28;20025;-85
2021/06/12 07:31:02;;;;;;;19.42;13.20;;;24.40;65.80;;;;;;5035264;28;20109;-84
2021/06/12 07:33:27;;;;;;;13.13;11.77;;;24.20;67.00;;;;;;5015279;28;20060;-84
2021/06/12 07:35:53;;;;;;;15.20;13.63;;;24.20;66.70;;;;;;5022630;28;20025;-84
2021/06/12 07:38:19;;;;;;;20.00;15.88;;;24.20;67.10;;;;;;4994689;28;20089;-84
2021/06/12 07:40:44;;;;;;;23.00;20.77;;;24.50;66.70;;;;;;5000964;28;20105;-84
2021/06/12 07:43:10;;;;;;;22.52;15.93;;;24.50;66.40;;;;;;5038645;28;20037;-83
2021/06/12 07:45:36;;;;;;;21.90;19.63;;;24.40;66.20;;;;;;5000138;28;20029;-83
2021/06/12 07:48:01;;;;;;;21.77;18.67;;;24.40;65.60;;;;;;5001663;28;20041;-83
2021/06/12 07:50:27;;;;;;;14.70;12.00;;;24.40;66.20;;;;;;5032123;28;20034;-84
2021/06/12 07:52:53;;;;;;;18.48;16.63;;;24.50;65.30;;;;;;5003816;28;20040;-84
2021/06/12 07:55:18;;;;;;;18.90;16.23;;;24.40;65.60;;;;;;4992959;28;20026;-83
2021/06/12 07:57:45;;;;;;;17.17;14.23;;;24.00;66.30;;;;;;5034221;28;20120;-84
2021/06/12 08:00:11;;;;;;;19.05;15.88;;;24.10;66.50;;;;;;5026505;28;20044;-84
2021/06/12 08:02:37;;;;;;;17.95;15.88;;;23.90;66.30;;;;;;5012191;28;20033;-84
2021/06/12 08:05:03;;;;;;;18.17;16.33;;;23.70;66.80;;;;;;5004404;28;20033;-84
2021/06/12 08:07:29;;;;;;;16.40;14.80;;;23.70;66.80;;;;;;5006465;28;20475;-83
2021/06/12 08:09:55;;;;;;;16.90;15.23;;;23.60;67.00;;;;;;5023472;28;20109;-84
2021/06/12 08:12:21;;;;;;;15.77;14.15;;;23.60;66.70;;;;;;5038237;28;20032;-84
2021/06/12 08:14:48;;;;;;;14.52;13.02;;;23.60;66.40;;;;;;5024909;28;20104;-84
2021/06/12 08:17:13;;;;;;;19.98;16.92;;;23.40;66.90;;;;;;5036645;28;20087;-84
2021/06/12 08:19:39;;;;;;;14.65;11.75;;;23.50;67.10;;;;;;5000132;28;20441;-84
2021/06/12 08:22:04;;;;;;;21.17;18.02;;;23.40;67.10;;;;;;5010746;28;20073;-84
2021/06/12 08:24:30;;;;;;;18.67;16.10;;;23.20;67.30;;;;;;5025859;28;20033;-83
2021/06/12 08:26:57;;;;;;;17.52;15.80;;;23.00;67.90;;;;;;5029084;28;20021;-84
2021/06/12 08:29:22;;;;;;;20.83;16.98;;;22.90;67.40;;;;;;5028302;28;20132;-86
2021/06/12 08:31:48;;;;;;;12.80;10.20;;;22.80;68.20;;;;;;5013968;28;20086;-83
2021/06/12 08:34:13;;;;;;;18.60;16.55;;;22.50;69.70;;;;;;5004568;28;20040;-83
2021/06/12 08:36:39;;;;;;;14.40;12.43;;;22.50;69.90;;;;;;4998628;28;20364;-85
2021/06/12 08:39:05;;;;;;;13.00;10.48;;;22.40;69.90;;;;;;5004800;28;20029;-83
2021/06/12 08:41:30;;;;;;;15.70;12.77;;;22.40;70.20;;;;;;5005585;28;20045;-84
2021/06/12 08:43:58;;;;;;;17.13;14.00;;;22.30;71.00;;;;;;5036859;28;20406;-84
2021/06/12 08:46:25;;;;;;;14.57;13.13;;;22.20;71.10;;;;;;5038132;28;20090;-85
2021/06/12 08:48:50;;;;;;;13.23;11.10;;;22.30;70.60;;;;;;5013731;28;20041;-84
2021/06/12 08:51:16;;;;;;;15.60;13.38;;;22.40;70.60;;;;;;5024959;28;20696;-84
2021/06/12 08:53:41;;;;;;;11.48;10.25;;;22.50;71.20;;;;;;5027024;28;20029;-83
2021/06/12 08:56:07;;;;;;;14.98;12.70;;;22.60;70.60;;;;;;5027960;28;20080;-84
2021/06/12 08:58:32;;;;;;;14.70;10.68;;;22.80;70.00;;;;;;5030911;28;20060;-84
2021/06/12 09:00:58;;;;;;;8.85;7.82;;;22.90;70.00;;;;;;5025822;28;20116;-83
2021/06/12 09:03:25;;;;;;;14.00;11.13;;;23.00;69.70;;;;;;5019249;28;20516;-84
2021/06/12 09:05:57;;;;;;;14.38;11.80;;;23.20;69.60;;;;;;5018030;28;20025;-84
2021/06/12 09:08:25;;;;;;;12.82;10.10;;;23.60;69.40;;;;;;5016609;28;20057;-83
2021/06/12 09:10:57;;;;;;;10.52;7.25;;;23.50;67.90;;;;;;5023665;28;20048;-84
2021/06/12 09:13:53;;;;;;;15.15;12.60;;;23.60;68.30;;;;;;5017142;28;20112;-84
2021/06/12 09:16:24;;;;;;;11.03;8.50;;;24.30;68.50;;;;;;5016238;28;20029;-84
2021/06/12 09:18:50;;;;;;;12.95;11.10;;;24.70;66.40;;;;;;5040491;28;20936;-84
2021/06/12 09:21:22;;;;;;;15.45;11.20;;;25.20;68.30;;;;;;5013120;28;20113;-84
2021/06/12 09:23:48;;;;;;;8.82;7.90;;;26.00;65.80;;;;;;5013375;28;20029;-84
2021/06/12 09:26:13;;;;;;;11.32;10.07;;;25.90;65.90;;;;;;5036234;28;20024;-84
2021/06/12 09:28:54;;;;;;;14.38;10.80;;;26.40;64.10;;;;;;5004318;28;20025;-84
2021/06/12 09:31:26;;;;;;;12.77;11.48;;;26.40;64.40;;;;;;5023953;28;20037;-83
2021/06/12 09:33:54;;;;;;;13.85;7.50;;;26.20;63.80;;;;;;5018526;28;20544;-84
2021/06/12 09:36:20;;;;;;;15.90;11.25;;;26.20;61.90;;;;;;5014244;28;20025;-84
2021/06/12 09:38:46;;;;;;;9.52;7.90;;;26.10;61.80;;;;;;5017270;28;20500;-83
2021/06/12 09:41:44;;;;;;;15.30;13.50;;;26.00;62.40;;;;;;5028181;28;20025;-84
2021/06/12 09:44:10;;;;;;;9.70;8.23;;;25.90;62.20;;;;;;5021290;28;20065;-84
2021/06/12 09:46:40;;;;;;;15.55;12.07;;;25.90;62.60;;;;;;5002879;28;20344;-84
2021/06/12 09:49:07;;;;;;;10.75;9.70;;;26.20;62.50;;;;;;5026136;28;20120;-84
2021/06/12 09:51:32;;;;;;;9.68;8.40;;;26.30;61.70;;;;;;5020306;28;20053;-84
2021/06/12 09:54:00;;;;;;;14.55;13.15;;;26.50;60.90;;;;;;5023335;28;20053;-84
2021/06/12 09:56:25;;;;;;;11.70;9.55;;;26.90;62.00;;;;;;5035825;28;20064;-84
2021/06/12 09:58:52;;;;;;;11.48;8.77;;;27.20;61.20;;;;;;5004216;28;20053;-84
2021/06/12 10:01:23;;;;;;;13.48;12.02;;;26.60;59.70;;;;;;4989973;28;20037;-83
2021/06/12 10:03:49;;;;;;;16.05;12.80;;;27.10;61.70;;;;;;5010851;28;20041;-84
2021/06/12 10:06:23;;;;;;;18.83;10.85;;;27.70;60.90;;;;;;5017890;28;20026;-85
2021/06/12 10:08:50;;;;;;;14.00;10.05;;;27.60;59.80;;;;;;4996117;28;20034;-84
2021/06/12 10:11:22;;;;;;;11.40;10.25;;;27.20;58.40;;;;;;5017175;28;20040;-84
2021/06/12 10:13:47;;;;;;;8.82;7.78;;;27.20;58.40;;;;;;5024010;28;20025;-84
2021/06/12 10:16:13;;;;;;;12.65;11.30;;;27.90;58.00;;;;;;5017320;28;20103;-85
2021/06/12 10:18:40;;;;;;;16.55;11.07;;;28.70;56.90;;;;;;5034024;28;20033;-85
2021/06/12 10:21:08;;;;;;;14.35;12.80;;;28.30;56.40;;;;;;5007746;28;20036;-85
2021/06/12 10:23:34;;;;;;;12.30;11.10;;;28.40;57.30;;;;;;5002251;28;20099;-85
2021/06/12 10:25:59;;;;;;;10.80;9.23;;;28.80;55.40;;;;;;5008023;28;20025;-85
2021/06/12 10:28:25;;;;;;;11.70;10.30;;;28.70;55.80;;;;;;5017045;28;20353;-85
2021/06/12 10:30:50;;;;;;;13.82;12.52;;;28.80;55.60;;;;;;5033593;28;20040;-84
2021/06/12 10:33:17;;;;;;;13.10;10.73;;;28.50;55.80;;;;;;5018867;28;20167;-85
2021/06/12 10:35:42;;;;;;;12.50;10.48;;;28.50;55.90;;;;;;5010805;28;20029;-85
2021/06/12 10:38:16;;;;;;;9.35;8.45;;;28.40;56.00;;;;;;5011880;28;20032;-84
2021/06/12 10:40:45;;;;;;;9.48;8.52;;;28.70;55.50;;;;;;5024074;28;20040;-85
2021/06/12 10:43:25;;;;;;;10.85;8.48;;;28.80;55.40;;;;;;5024175;28;20036;-84
2021/06/12 10:46:02;;;;;;;11.18;10.02;;;28.90;54.90;;;;;;5021033;28;20082;-84
2021/06/12 10:48:37;;;;;;;11.98;7.90;;;29.20;54.80;;;;;;5036891;28;20508;-84
2021/06/12 10:51:03;;;;;;;14.63;8.02;;;28.90;53.80;;;;;;5035268;28;20132;-84
2021/06/12 10:53:36;;;;;;;6.97;6.32;;;29.40;53.80;;;;;;5012889;28;20041;-84
2021/06/12 10:56:11;;;;;;;14.35;8.95;;;29.70;54.00;;;;;;5024419;28;20082;-84
2021/06/12 10:58:41;;;;;;;12.93;10.00;;;30.00;53.20;;;;;;5005381;28;20463;-83
2021/06/12 11:01:14;;;;;;;21.48;9.45;;;30.30;52.50;;;;;;5010071;28;20271;-85
2021/06/12 11:04:05;;;;;;;7.47;6.70;;;30.40;51.90;;;;;;5037738;28;20033;-84
2021/06/12 11:06:42;;;;;;;6.53;5.85;;;30.30;51.50;;;;;;5027408;28;20072;-84
2021/06/12 11:09:14;;;;;;;12.38;9.48;;;30.20;50.70;;;;;;5035707;28;20025;-83
2021/06/12 11:11:43;;;;;;;11.45;8.95;;;30.00;51.10;;;;;;5032137;28;20036;-83
2021/06/12 11:14:23;;;;;;;13.48;10.10;;;30.10;51.80;;;;;;4997730;28;20040;-83
2021/06/12 11:17:04;;;;;;;14.90;9.07;;;30.60;50.80;;;;;;5048014;28;20026;-83
2021/06/12 11:19:49;;;;;;;8.13;6.57;;;30.60;50.40;;;;;;5037012;28;20041;-83
2021/06/12 11:22:32;;;;;;;5.87;5.10;;;30.90;50.20;;;;;;5030441;28;20124;-84
2021/06/12 11:25:07;;;;;;;5.75;4.32;;;30.40;49.80;;;;;;5025426;28;20544;-83
2021/06/12 11:27:42;;;;;;;;;;;30.70;48.90;;;;;;5034878;28;20049;-83
2021/06/12 11:30:17;;;;;;;5.72;4.55;;;30.60;48.50;;;;;;5027033;28;19908;-83
2021/06/12 11:32:46;;;;;;;9.13;6.03;;;30.60;48.60;;;;;;5045053;28;20580;-83
2021/06/12 11:35:12;;;;;;;7.35;5.05;;;30.30;48.90;;;;;;5026190;28;20083;-83
2021/06/12 11:37:40;;;;;;;5.65;3.50;;;30.20;49.00;;;;;;5020867;28;20033;-82
2021/06/12 11:40:06;;;;;;;4.70;3.05;;;30.20;48.20;;;;;;5006090;28;20032;-82
2021/06/12 11:42:45;;;;;;;6.20;3.72;;;30.00;47.70;;;;;;5002597;28;20397;-83
2021/06/12 11:45:14;;;;;;;4.40;2.90;;;29.90;48.00;;;;;;5018175;28;20545;-84
2021/06/12 11:47:40;;;;;;;3.08;2.60;;;30.00;47.50;;;;;;5041498;28;20067;-83
2021/06/12 11:50:06;;;;;;;3.72;2.22;;;29.70;47.50;;;;;;5005912;28;20060;-84
2021/06/12 11:52:38;;;;;;;3.45;2.42;;;29.80;46.40;;;;;;5019713;28;20029;-83
2021/06/12 11:55:20;;;;;;;3.17;2.88;;;29.80;47.20;;;;;;5025863;28;20058;-84
2021/06/12 11:57:47;;;;;;;3.88;2.28;;;30.00;45.20;;;;;;5018285;28;20474;-83
2021/06/12 12:00:32;;;;;;;7.47;2.75;;;30.10;46.60;;;;;;5038046;28;20022;-82
2021/06/12 12:03:08;;;;;;;3.70;2.55;;;30.40;45.10;;;;;;5035673;28;20033;-84
2021/06/12 12:05:37;;;;;;;3.95;2.42;;;30.20;46.50;;;;;;5015814;28;20571;-84
2021/06/12 12:08:05;;;;;;;5.90;3.28;;;30.30;46.70;;;;;;5035427;28;20030;-84
2021/06/12 12:10:31;;;;;;;5.53;2.75;;;30.30;44.90;;;;;;5005583;28;20574;-82
2021/06/12 12:12:56;;;;;;;4.47;2.70;;;30.60;45.10;;;;;;5014371;28;20388;-84
2021/06/12 12:15:42;;;;;;;4.70;2.50;;;30.80;45.30;;;;;;5018406;28;20117;-84
2021/06/12 12:18:09;;;;;;;4.72;2.47;;;30.80;43.70;;;;;;4315792;28;10000327;-83
2021/06/12 12:20:48;;;;;;;3.85;2.70;;;30.80;44.70;;;;;;5020704;28;20036;-84
2021/06/12 12:23:23;;;;;;;4.55;3.00;;;30.90;43.60;;;;;;5019042;28;20044;-85
2021/06/12 12:25:51;;;;;;;;;;;31.10;43.90;;;;;;5019826;28;20057;-84
2021/06/12 12:28:21;;;;;;;6.75;2.85;;;31.30;43.10;;;;;;5015787;28;20292;-83
2021/06/12 12:30:48;;;;;;;4.18;2.40;;;31.00;43.70;;;;;;5034580;28;20039;-82
2021/06/12 12:33:17;;;;;;;6.47;2.60;;;31.00;43.80;;;;;;5035700;28;20080;-84
2021/06/12 12:35:43;;;;;;;4.95;2.45;;;31.00;43.40;;;;;;5009142;28;20036;-83
2021/06/12 12:38:20;;;;;;;2.70;2.47;;;30.80;43.00;;;;;;5018090;28;20401;-84
2021/06/12 12:40:46;;;;;;;3.92;2.25;;;30.70;44.10;;;;;;5028075;28;20040;-82
2021/06/12 12:43:13;;;;;;;2.20;1.80;;;30.60;43.70;;;;;;5022807;28;20075;-83